sensor_id;sensor_type;location;lat;lon;timestamp;P1;durP1;ratioP1;P2;durP2;ratioP2
53644;SDS011;39547;45.554;12.068;2024-02-21T00:01:55;71.70;;;46.85;;
53644;SDS011;39547;45.554;12.068;2024-02-21T00:07:58;68.18;;;45.22;;
53644;SDS011;39547;45.554;12.068;2024-02-21T00:14:00;69.03;;;45.22;;
53644;SDS011;39547;45.554;12.068;2024-02-21T00:20:02;68.78;;;44.80;;
53644;SDS011;39547;45.554;12.068;2024-02-21T00:26:04;66.03;;;44.35;;
53644;SDS011;39547;45.554;12.068;2024-02-21T00:32:07;74.25;;;47.42;;
53644;SDS011;39547;45.554;12.068;2024-02-21T00:38:08;72.68;;;47.80;;
53644;SDS011;39547;45.554;12.068;2024-02-21T00:44:10;73.80;;;47.95;;
53644;SDS011;39547;45.554;12.068;2024-02-21T00:50:11;73.30;;;46.85;;
53644;SDS011;39547;45.554;12.068;2024-02-21T00:56:13;78.30;;;49.33;;
53644;SDS011;39547;45.554;12.068;2024-02-21T01:02:14;74.45;;;47.85;;
53644;SDS011;39547;45.554;12.068;2024-02-21T01:08:16;81.13;;;47.67;;
53644;SDS011;39547;45.554;12.068;2024-02-21T01:14:18;74.90;;;47.70;;
53644;SDS011;39547;45.554;12.068;2024-02-21T01:20:20;74.47;;;44.78;;
53644;SDS011;39547;45.554;12.068;2024-02-21T01:26:22;68.63;;;44.05;;
53644;SDS011;39547;45.554;12.068;2024-02-21T01:32:23;67.85;;;43.65;;
53644;SDS011;39547;45.554;12.068;2024-02-21T01:38:25;62.70;;;41.05;;
53644;SDS011;39547;45.554;12.068;2024-02-21T01:44:26;62.08;;;40.30;;
53644;SDS011;39547;45.554;12.068;2024-02-21T01:50:28;57.85;;;38.75;;
53644;SDS011;39547;45.554;12.068;2024-02-21T01:56:30;57.53;;;37.95;;
53644;SDS011;39547;45.554;12.068;2024-02-21T02:02:31;58.53;;;37.40;;
53644;SDS011;39547;45.554;12.068;2024-02-21T02:08:33;53.33;;;35.05;;
53644;SDS011;39547;45.554;12.068;2024-02-21T02:14:34;50.63;;;33.70;;
53644;SDS011;39547;45.554;12.068;2024-02-21T02:20:37;51.05;;;33.33;;
53644;SDS011;39547;45.554;12.068;2024-02-21T02:26:39;49.20;;;32.95;;
53644;SDS011;39547;45.554;12.068;2024-02-21T02:32:44;46.45;;;31.02;;
53644;SDS011;39547;45.554;12.068;2024-02-21T02:38:48;46.40;;;30.13;;
53644;SDS011;39547;45.554;12.068;2024-02-21T02:44:49;43.65;;;27.75;;
53644;SDS011;39547;45.554;12.068;2024-02-21T02:50:52;42.20;;;27.80;;
53644;SDS011;39547;45.554;12.068;2024-02-21T02:56:53;43.58;;;28.23;;
53644;SDS011;39547;45.554;12.068;2024-02-21T03:02:55;40.47;;;26.52;;
53644;SDS011;39547;45.554;12.068;2024-02-21T03:08:56;40.65;;;26.10;;
53644;SDS011;39547;45.554;12.068;2024-02-21T03:14:58;38.67;;;25.85;;
53644;SDS011;39547;45.554;12.068;2024-02-21T03:20:59;38.85;;;25.67;;
53644;SDS011;39547;45.554;12.068;2024-02-21T03:27:01;40.15;;;25.88;;
53644;SDS011;39547;45.554;12.068;2024-02-21T03:33:03;35.95;;;23.55;;
53644;SDS011;39547;45.554;12.068;2024-02-21T03:39:04;36.05;;;23.42;;
53644;SDS011;39547;45.554;12.068;2024-02-21T03:45:06;35.45;;;22.38;;
53644;SDS011;39547;45.554;12.068;2024-02-21T03:51:08;35.33;;;22.77;;
53644;SDS011;39547;45.554;12.068;2024-02-21T03:57:09;34.38;;;22.30;;
53644;SDS011;39547;45.554;12.068;2024-02-21T04:03:11;35.72;;;23.05;;
53644;SDS011;39547;45.554;12.068;2024-02-21T04:09:12;35.70;;;23.38;;
53644;SDS011;39547;45.554;12.068;2024-02-21T04:15:14;36.78;;;23.20;;
53644;SDS011;39547;45.554;12.068;2024-02-21T04:21:16;37.13;;;23.73;;
53644;SDS011;39547;45.554;12.068;2024-02-21T04:27:18;38.70;;;24.73;;
53644;SDS011;39547;45.554;12.068;2024-02-21T04:33:19;40.45;;;24.67;;
53644;SDS011;39547;45.554;12.068;2024-02-21T04:39:21;37.22;;;23.73;;
53644;SDS011;39547;45.554;12.068;2024-02-21T04:45:22;39.65;;;25.40;;
53644;SDS011;39547;45.554;12.068;2024-02-21T04:51:24;39.80;;;25.85;;
53644;SDS011;39547;45.554;12.068;2024-02-21T04:57:25;42.67;;;27.23;;
53644;SDS011;39547;45.554;12.068;2024-02-21T05:03:27;41.55;;;27.13;;
53644;SDS011;39547;45.554;12.068;2024-02-21T05:09:28;42.10;;;26.88;;
53644;SDS011;39547;45.554;12.068;2024-02-21T05:15:29;42.47;;;27.50;;
53644;SDS011;39547;45.554;12.068;2024-02-21T05:21:32;43.28;;;27.77;;
53644;SDS011;39547;45.554;12.068;2024-02-21T05:27:33;43.60;;;28.58;;
53644;SDS011;39547;45.554;12.068;2024-02-21T05:33:36;44.42;;;27.88;;
53644;SDS011;39547;45.554;12.068;2024-02-21T05:39:38;43.05;;;27.92;;
53644;SDS011;39547;45.554;12.068;2024-02-21T05:45:39;46.50;;;29.20;;
53644;SDS011;39547;45.554;12.068;2024-02-21T05:51:41;49.03;;;30.13;;
53644;SDS011;39547;45.554;12.068;2024-02-21T05:57:43;45.72;;;28.70;;
53644;SDS011;39547;45.554;12.068;2024-02-21T06:03:44;47.60;;;29.13;;
53644;SDS011;39547;45.554;12.068;2024-02-21T06:09:46;47.40;;;29.30;;
53644;SDS011;39547;45.554;12.068;2024-02-21T06:15:47;46.10;;;29.27;;
53644;SDS011;39547;45.554;12.068;2024-02-21T06:21:50;47.40;;;29.35;;
53644;SDS011;39547;45.554;12.068;2024-02-21T06:27:51;44.30;;;29.00;;
53644;SDS011;39547;45.554;12.068;2024-02-21T06:33:53;45.58;;;29.55;;
53644;SDS011;39547;45.554;12.068;2024-02-21T06:39:54;47.08;;;29.38;;
53644;SDS011;39547;45.554;12.068;2024-02-21T06:45:55;45.05;;;28.83;;
53644;SDS011;39547;45.554;12.068;2024-02-21T06:51:57;45.05;;;28.48;;
53644;SDS011;39547;45.554;12.068;2024-02-21T06:57:59;47.05;;;29.70;;
53644;SDS011;39547;45.554;12.068;2024-02-21T07:04:00;46.40;;;29.75;;
53644;SDS011;39547;45.554;12.068;2024-02-21T07:10:02;45.25;;;29.83;;
53644;SDS011;39547;45.554;12.068;2024-02-21T07:16:06;47.03;;;29.88;;
53644;SDS011;39547;45.554;12.068;2024-02-21T07:22:08;46.22;;;29.60;;
53644;SDS011;39547;45.554;12.068;2024-02-21T07:28:10;46.33;;;29.75;;
53644;SDS011;39547;45.554;12.068;2024-02-21T07:34:12;47.25;;;29.20;;
53644;SDS011;39547;45.554;12.068;2024-02-21T07:40:16;46.40;;;31.00;;
53644;SDS011;39547;45.554;12.068;2024-02-21T07:46:18;43.92;;;29.55;;
53644;SDS011;39547;45.554;12.068;2024-02-21T07:52:20;45.97;;;29.27;;
53644;SDS011;39547;45.554;12.068;2024-02-21T07:58:22;42.15;;;27.50;;
53644;SDS011;39547;45.554;12.068;2024-02-21T08:04:25;36.53;;;23.15;;
53644;SDS011;39547;45.554;12.068;2024-02-21T08:10:26;35.13;;;22.38;;
53644;SDS011;39547;45.554;12.068;2024-02-21T08:16:28;31.73;;;20.08;;
53644;SDS011;39547;45.554;12.068;2024-02-21T08:22:31;35.38;;;20.05;;
53644;SDS011;39547;45.554;12.068;2024-02-21T08:28:33;31.58;;;19.13;;
53644;SDS011;39547;45.554;12.068;2024-02-21T08:34:34;32.80;;;19.77;;
53644;SDS011;39547;45.554;12.068;2024-02-21T08:40:36;32.92;;;19.70;;
53644;SDS011;39547;45.554;12.068;2024-02-21T08:46:37;31.20;;;18.30;;
53644;SDS011;39547;45.554;12.068;2024-02-21T08:52:41;31.08;;;18.40;;
53644;SDS011;39547;45.554;12.068;2024-02-21T08:58:43;28.85;;;16.85;;
53644;SDS011;39547;45.554;12.068;2024-02-21T09:04:45;25.15;;;14.18;;
53644;SDS011;39547;45.554;12.068;2024-02-21T09:10:46;22.83;;;12.13;;
53644;SDS011;39547;45.554;12.068;2024-02-21T09:16:48;18.90;;;9.10;;
53644;SDS011;39547;45.554;12.068;2024-02-21T09:22:51;16.05;;;7.32;;
53644;SDS011;39547;45.554;12.068;2024-02-21T09:28:55;18.65;;;8.07;;
53644;SDS011;39547;45.554;12.068;2024-02-21T09:34:56;15.50;;;6.63;;
53644;SDS011;39547;45.554;12.068;2024-02-21T09:40:59;15.35;;;6.40;;
53644;SDS011;39547;45.554;12.068;2024-02-21T09:47:12;14.27;;;5.95;;
53644;SDS011;39547;45.554;12.068;2024-02-21T09:53:17;14.75;;;6.47;;
53644;SDS011;39547;45.554;12.068;2024-02-21T09:59:20;15.32;;;6.80;;
53644;SDS011;39547;45.554;12.068;2024-02-21T10:05:24;14.50;;;5.63;;
53644;SDS011;39547;45.554;12.068;2024-02-21T10:11:28;13.60;;;5.50;;
53644;SDS011;39547;45.554;12.068;2024-02-21T10:17:29;13.93;;;5.90;;
53644;SDS011;39547;45.554;12.068;2024-02-21T10:23:48;14.07;;;5.50;;
53644;SDS011;39547;45.554;12.068;2024-02-21T10:29:50;13.25;;;5.50;;
53644;SDS011;39547;45.554;12.068;2024-02-21T10:42:06;14.32;;;5.88;;
53644;SDS011;39547;45.554;12.068;2024-02-21T10:48:13;14.97;;;6.33;;
53644;SDS011;39547;45.554;12.068;2024-02-21T11:00:40;15.00;;;6.47;;
53644;SDS011;39547;45.554;12.068;2024-02-21T11:06:43;13.32;;;5.80;;
53644;SDS011;39547;45.554;12.068;2024-02-21T11:12:45;14.05;;;6.22;;
53644;SDS011;39547;45.554;12.068;2024-02-21T11:18:46;14.85;;;6.25;;
53644;SDS011;39547;45.554;12.068;2024-02-21T11:24:48;14.93;;;6.20;;
53644;SDS011;39547;45.554;12.068;2024-02-21T11:30:49;15.00;;;6.35;;
53644;SDS011;39547;45.554;12.068;2024-02-21T11:36:52;13.77;;;6.03;;
53644;SDS011;39547;45.554;12.068;2024-02-21T11:42:57;13.30;;;5.70;;
53644;SDS011;39547;45.554;12.068;2024-02-21T11:49:01;14.98;;;5.80;;
53644;SDS011;39547;45.554;12.068;2024-02-21T11:55:04;14.27;;;6.38;;
53644;SDS011;39547;45.554;12.068;2024-02-21T12:01:09;15.73;;;6.22;;
53644;SDS011;39547;45.554;12.068;2024-02-21T12:07:10;13.60;;;5.72;;
53644;SDS011;39547;45.554;12.068;2024-02-21T12:13:12;13.45;;;5.70;;
53644;SDS011;39547;45.554;12.068;2024-02-21T12:19:14;14.55;;;6.18;;
53644;SDS011;39547;45.554;12.068;2024-02-21T12:25:18;13.83;;;5.60;;
53644;SDS011;39547;45.554;12.068;2024-02-21T12:31:23;16.63;;;7.95;;
53644;SDS011;39547;45.554;12.068;2024-02-21T12:37:25;15.20;;;6.50;;
53644;SDS011;39547;45.554;12.068;2024-02-21T12:43:26;19.48;;;9.82;;
53644;SDS011;39547;45.554;12.068;2024-02-21T12:49:28;19.83;;;10.27;;
53644;SDS011;39547;45.554;12.068;2024-02-21T12:55:30;21.25;;;11.50;;
53644;SDS011;39547;45.554;12.068;2024-02-21T13:01:31;25.27;;;14.05;;
53644;SDS011;39547;45.554;12.068;2024-02-21T13:07:34;21.65;;;11.77;;
53644;SDS011;39547;45.554;12.068;2024-02-21T13:13:35;21.70;;;11.20;;
53644;SDS011;39547;45.554;12.068;2024-02-21T13:19:37;22.98;;;12.77;;
53644;SDS011;39547;45.554;12.068;2024-02-21T13:25:38;24.42;;;14.32;;
53644;SDS011;39547;45.554;12.068;2024-02-21T13:31:40;29.38;;;17.27;;
53644;SDS011;39547;45.554;12.068;2024-02-21T13:37:41;33.33;;;19.00;;
53644;SDS011;39547;45.554;12.068;2024-02-21T13:43:43;32.28;;;19.33;;
53644;SDS011;39547;45.554;12.068;2024-02-21T13:49:44;29.15;;;16.40;;
53644;SDS011;39547;45.554;12.068;2024-02-21T13:55:47;25.33;;;14.93;;
53644;SDS011;39547;45.554;12.068;2024-02-21T14:01:48;25.92;;;15.02;;
53644;SDS011;39547;45.554;12.068;2024-02-21T14:07:50;25.52;;;13.93;;
53644;SDS011;39547;45.554;12.068;2024-02-21T14:13:55;22.88;;;12.65;;
53644;SDS011;39547;45.554;12.068;2024-02-21T14:19:59;22.70;;;12.88;;
53644;SDS011;39547;45.554;12.068;2024-02-21T14:26:00;21.45;;;11.70;;
53644;SDS011;39547;45.554;12.068;2024-02-21T14:32:02;23.58;;;12.05;;
53644;SDS011;39547;45.554;12.068;2024-02-21T14:38:06;22.23;;;12.35;;
53644;SDS011;39547;45.554;12.068;2024-02-21T14:44:09;22.52;;;12.50;;
53644;SDS011;39547;45.554;12.068;2024-02-21T14:50:10;22.52;;;11.88;;
53644;SDS011;39547;45.554;12.068;2024-02-21T14:56:12;20.90;;;10.90;;
53644;SDS011;39547;45.554;12.068;2024-02-21T15:02:15;19.40;;;10.50;;
53644;SDS011;39547;45.554;12.068;2024-02-21T15:08:18;22.33;;;11.73;;
53644;SDS011;39547;45.554;12.068;2024-02-21T15:14:20;19.63;;;9.93;;
53644;SDS011;39547;45.554;12.068;2024-02-21T15:20:21;17.85;;;9.02;;
53644;SDS011;39547;45.554;12.068;2024-02-21T15:26:23;19.23;;;8.45;;
53644;SDS011;39547;45.554;12.068;2024-02-21T15:32:25;18.63;;;8.80;;
53644;SDS011;39547;45.554;12.068;2024-02-21T15:38:27;16.85;;;8.07;;
53644;SDS011;39547;45.554;12.068;2024-02-21T15:44:29;17.10;;;7.90;;
53644;SDS011;39547;45.554;12.068;2024-02-21T15:50:31;15.65;;;7.45;;
53644;SDS011;39547;45.554;12.068;2024-02-21T15:56:32;15.30;;;6.95;;
53644;SDS011;39547;45.554;12.068;2024-02-21T16:02:34;17.35;;;8.00;;
53644;SDS011;39547;45.554;12.068;2024-02-21T16:08:36;16.83;;;6.55;;
53644;SDS011;39547;45.554;12.068;2024-02-21T16:14:41;15.98;;;6.85;;
53644;SDS011;39547;45.554;12.068;2024-02-21T16:20:43;16.48;;;6.65;;
53644;SDS011;39547;45.554;12.068;2024-02-21T16:26:44;15.73;;;6.93;;
53644;SDS011;39547;45.554;12.068;2024-02-21T16:32:46;15.43;;;6.65;;
53644;SDS011;39547;45.554;12.068;2024-02-21T16:38:49;15.40;;;6.68;;
53644;SDS011;39547;45.554;12.068;2024-02-21T16:50:53;15.57;;;7.18;;
53644;SDS011;39547;45.554;12.068;2024-02-21T16:56:55;16.40;;;6.85;;
53644;SDS011;39547;45.554;12.068;2024-02-21T17:02:57;15.90;;;7.20;;
53644;SDS011;39547;45.554;12.068;2024-02-21T17:08:58;17.90;;;7.63;;
53644;SDS011;39547;45.554;12.068;2024-02-21T17:15:05;17.70;;;7.70;;
53644;SDS011;39547;45.554;12.068;2024-02-21T17:21:08;16.40;;;7.82;;
53644;SDS011;39547;45.554;12.068;2024-02-21T17:27:10;16.13;;;7.97;;
53644;SDS011;39547;45.554;12.068;2024-02-21T17:33:12;17.83;;;8.52;;
53644;SDS011;39547;45.554;12.068;2024-02-21T17:39:13;16.40;;;7.95;;
53644;SDS011;39547;45.554;12.068;2024-02-21T17:45:16;18.92;;;8.82;;
53644;SDS011;39547;45.554;12.068;2024-02-21T17:51:17;18.25;;;9.68;;
53644;SDS011;39547;45.554;12.068;2024-02-21T17:57:19;19.48;;;10.70;;
53644;SDS011;39547;45.554;12.068;2024-02-21T18:03:21;19.80;;;10.63;;
53644;SDS011;39547;45.554;12.068;2024-02-21T18:09:22;21.13;;;12.02;;
53644;SDS011;39547;45.554;12.068;2024-02-21T18:15:24;20.38;;;10.88;;
53644;SDS011;39547;45.554;12.068;2024-02-21T18:21:26;19.90;;;10.82;;
53644;SDS011;39547;45.554;12.068;2024-02-21T18:27:28;20.98;;;11.40;;
53644;SDS011;39547;45.554;12.068;2024-02-21T18:33:30;21.25;;;11.57;;
53644;SDS011;39547;45.554;12.068;2024-02-21T18:39:32;24.38;;;13.25;;
53644;SDS011;39547;45.554;12.068;2024-02-21T18:45:34;22.67;;;13.15;;
53644;SDS011;39547;45.554;12.068;2024-02-21T18:51:35;22.60;;;12.60;;
53644;SDS011;39547;45.554;12.068;2024-02-21T18:57:37;22.20;;;12.27;;
53644;SDS011;39547;45.554;12.068;2024-02-21T19:03:38;24.58;;;14.75;;
53644;SDS011;39547;45.554;12.068;2024-02-21T19:09:40;24.88;;;14.75;;
53644;SDS011;39547;45.554;12.068;2024-02-21T19:15:42;26.55;;;15.48;;
53644;SDS011;39547;45.554;12.068;2024-02-21T19:21:43;25.50;;;15.50;;
53644;SDS011;39547;45.554;12.068;2024-02-21T19:27:45;26.55;;;16.00;;
53644;SDS011;39547;45.554;12.068;2024-02-21T19:33:47;29.00;;;16.85;;
53644;SDS011;39547;45.554;12.068;2024-02-21T19:39:48;28.90;;;18.00;;
53644;SDS011;39547;45.554;12.068;2024-02-21T19:45:50;30.02;;;17.42;;
53644;SDS011;39547;45.554;12.068;2024-02-21T19:51:51;29.88;;;17.88;;
53644;SDS011;39547;45.554;12.068;2024-02-21T19:57:53;28.55;;;17.45;;
53644;SDS011;39547;45.554;12.068;2024-02-21T20:03:55;28.98;;;17.10;;
53644;SDS011;39547;45.554;12.068;2024-02-21T20:09:58;28.00;;;17.52;;
53644;SDS011;39547;45.554;12.068;2024-02-21T20:15:59;26.77;;;16.90;;
53644;SDS011;39547;45.554;12.068;2024-02-21T20:22:02;29.08;;;18.25;;
53644;SDS011;39547;45.554;12.068;2024-02-21T20:28:03;29.88;;;18.67;;
53644;SDS011;39547;45.554;12.068;2024-02-21T20:34:05;30.13;;;18.80;;
53644;SDS011;39547;45.554;12.068;2024-02-21T20:40:07;31.85;;;19.60;;
53644;SDS011;39547;45.554;12.068;2024-02-21T20:46:09;32.05;;;20.25;;
53644;SDS011;39547;45.554;12.068;2024-02-21T20:52:11;33.75;;;21.75;;
53644;SDS011;39547;45.554;12.068;2024-02-21T20:58:12;36.60;;;23.38;;
53644;SDS011;39547;45.554;12.068;2024-02-21T21:04:14;37.40;;;23.13;;
53644;SDS011;39547;45.554;12.068;2024-02-21T21:10:15;39.67;;;25.15;;
53644;SDS011;39547;45.554;12.068;2024-02-21T21:16:17;38.90;;;25.58;;
53644;SDS011;39547;45.554;12.068;2024-02-21T21:22:19;41.33;;;27.10;;
53644;SDS011;39547;45.554;12.068;2024-02-21T21:28:20;42.70;;;28.38;;
53644;SDS011;39547;45.554;12.068;2024-02-21T21:34:23;44.45;;;28.55;;
53644;SDS011;39547;45.554;12.068;2024-02-21T21:40:24;45.88;;;29.20;;
53644;SDS011;39547;45.554;12.068;2024-02-21T21:46:27;46.90;;;30.67;;
53644;SDS011;39547;45.554;12.068;2024-02-21T21:52:29;49.67;;;30.90;;
53644;SDS011;39547;45.554;12.068;2024-02-21T21:58:32;49.38;;;32.50;;
53644;SDS011;39547;45.554;12.068;2024-02-21T22:04:34;54.92;;;35.10;;
53644;SDS011;39547;45.554;12.068;2024-02-21T22:10:36;56.05;;;36.10;;
53644;SDS011;39547;45.554;12.068;2024-02-21T22:16:38;58.05;;;36.53;;
53644;SDS011;39547;45.554;12.068;2024-02-21T22:22:39;54.42;;;35.75;;
53644;SDS011;39547;45.554;12.068;2024-02-21T22:28:41;54.13;;;34.35;;
53644;SDS011;39547;45.554;12.068;2024-02-21T22:34:42;48.97;;;30.98;;
53644;SDS011;39547;45.554;12.068;2024-02-21T22:40:44;51.60;;;32.80;;
53644;SDS011;39547;45.554;12.068;2024-02-21T22:46:45;50.50;;;33.22;;
53644;SDS011;39547;45.554;12.068;2024-02-21T22:52:47;61.70;;;39.65;;
53644;SDS011;39547;45.554;12.068;2024-02-21T22:58:48;65.45;;;40.00;;
53644;SDS011;39547;45.554;12.068;2024-02-21T23:04:51;65.45;;;40.17;;
53644;SDS011;39547;45.554;12.068;2024-02-21T23:10:53;70.25;;;41.53;;
53644;SDS011;39547;45.554;12.068;2024-02-21T23:16:55;66.65;;;41.95;;
53644;SDS011;39547;45.554;12.068;2024-02-21T23:22:57;67.75;;;42.38;;
53644;SDS011;39547;45.554;12.068;2024-02-21T23:28:58;65.50;;;40.55;;
53644;SDS011;39547;45.554;12.068;2024-02-21T23:35:00;68.47;;;40.78;;
53644;SDS011;39547;45.554;12.068;2024-02-21T23:41:01;59.63;;;38.60;;
53644;SDS011;39547;45.554;12.068;2024-02-21T23:47:03;57.60;;;36.95;;
53644;SDS011;39547;45.554;12.068;2024-02-21T23:53:04;61.25;;;39.15;;
53644;SDS011;39547;45.554;12.068;2024-02-21T23:59:06;59.28;;;38.33;;
